sensor_id;sensor_type;location;lat;lon;timestamp;pressure;altitude;pressure_sealevel;temperature;humidity
16834;BME280;8533;48.426;10.868;2022-10-16T00:01:28;96192.38;;;13.29;100.00
16834;BME280;8533;48.426;10.868;2022-10-16T00:03:58;96195.77;;;13.27;100.00
16834;BME280;8533;48.426;10.868;2022-10-16T00:06:27;96197.09;;;13.27;100.00
16834;BME280;8533;48.426;10.868;2022-10-16T00:08:55;96195.77;;;13.27;100.00
16834;BME280;8533;48.426;10.868;2022-10-16T00:11:26;96187.63;;;13.26;100.00
16834;BME280;8533;48.426;10.868;2022-10-16T00:13:56;96193.67;;;13.27;100.00
16834;BME280;8533;48.426;10.868;2022-10-16T00:16:24;96196.28;;;13.24;100.00
16834;BME280;8533;48.426;10.868;2022-10-16T00:18:52;96202.06;;;13.24;100.00
16834;BME280;8533;48.426;10.868;2022-10-16T00:21:22;96194.19;;;13.21;100.00
16834;BME280;8533;48.426;10.868;2022-10-16T00:23:56;96190.23;;;13.19;100.00
16834;BME280;8533;48.426;10.868;2022-10-16T00:26:25;96190.75;;;13.16;100.00
16834;BME280;8533;48.426;10.868;2022-10-16T00:28:52;96196.77;;;13.14;100.00
16834;BME280;8533;48.426;10.868;2022-10-16T00:31:22;96202.81;;;13.14;100.00
16834;BME280;8533;48.426;10.868;2022-10-16T00:33:50;96209.38;;;13.14;100.00
16834;BME280;8533;48.426;10.868;2022-10-16T00:36:19;96211.73;;;13.11;100.00
16834;BME280;8533;48.426;10.868;2022-10-16T00:38:49;96213.83;;;13.11;100.00
16834;BME280;8533;48.426;10.868;2022-10-16T00:41:17;96213.83;;;13.11;100.00
16834;BME280;8533;48.426;10.868;2022-10-16T00:43:53;96211.19;;;13.09;100.00
16834;BME280;8533;48.426;10.868;2022-10-16T00:46:22;96209.61;;;13.08;100.00
16834;BME280;8533;48.426;10.868;2022-10-16T00:48:57;96214.06;;;13.07;100.00
16834;BME280;8533;48.426;10.868;2022-10-16T00:51:30;96220.63;;;13.07;100.00
16834;BME280;8533;48.426;10.868;2022-10-16T00:53:57;96215.90;;;13.07;100.00
16834;BME280;8533;48.426;10.868;2022-10-16T00:56:24;96212.48;;;13.06;100.00
16834;BME280;8533;48.426;10.868;2022-10-16T00:58:52;96207.24;;;13.04;100.00
16834;BME280;8533;48.426;10.868;2022-10-16T01:01:20;96210.91;;;13.03;100.00
16834;BME280;8533;48.426;10.868;2022-10-16T01:03:47;96216.69;;;13.02;100.00
16834;BME280;8533;48.426;10.868;2022-10-16T01:09:16;96216.69;;;13.02;100.00
16834;BME280;8533;48.426;10.868;2022-10-16T01:14:54;96206.70;;;12.96;100.00
16834;BME280;8533;48.426;10.868;2022-10-16T01:17:18;96205.39;;;12.96;100.00
16834;BME280;8533;48.426;10.868;2022-10-16T01:20:03;96201.43;;;12.94;100.00
16834;BME280;8533;48.426;10.868;2022-10-16T01:25:05;96202.47;;;12.93;100.00
16834;BME280;8533;48.426;10.868;2022-10-16T01:27:35;96198.53;;;12.93;100.00
16834;BME280;8533;48.426;10.868;2022-10-16T01:30:13;96191.70;;;12.92;100.00
16834;BME280;8533;48.426;10.868;2022-10-16T01:32:41;96196.44;;;12.92;100.00
16834;BME280;8533;48.426;10.868;2022-10-16T01:35:23;96190.13;;;12.91;100.00
16834;BME280;8533;48.426;10.868;2022-10-16T01:38:17;96201.16;;;12.88;100.00
16834;BME280;8533;48.426;10.868;2022-10-16T01:40:50;96207.20;;;12.88;100.00
16834;BME280;8533;48.426;10.868;2022-10-16T01:43:25;96203.23;;;12.86;100.00
16834;BME280;8533;48.426;10.868;2022-10-16T01:45:53;96206.91;;;12.85;100.00
16834;BME280;8533;48.426;10.868;2022-10-16T01:48:21;96206.90;;;12.80;100.00
16834;BME280;8533;48.426;10.868;2022-10-16T01:50:55;96192.95;;;12.74;100.00
16834;BME280;8533;48.426;10.868;2022-10-16T01:53:22;96193.45;;;12.69;100.00
16834;BME280;8533;48.426;10.868;2022-10-16T01:55:53;96191.87;;;12.63;100.00
16834;BME280;8533;48.426;10.868;2022-10-16T01:58:23;96193.41;;;12.58;100.00
16834;BME280;8533;48.426;10.868;2022-10-16T02:00:52;96198.64;;;12.53;100.00
16834;BME280;8533;48.426;10.868;2022-10-16T02:03:21;96207.53;;;12.50;100.00
16834;BME280;8533;48.426;10.868;2022-10-16T02:05:53;96205.43;;;12.49;100.00
16834;BME280;8533;48.426;10.868;2022-10-16T02:08:24;96210.95;;;12.48;100.00
16834;BME280;8533;48.426;10.868;2022-10-16T02:10:52;96212.51;;;12.49;100.00
16834;BME280;8533;48.426;10.868;2022-10-16T02:13:26;96218.30;;;12.48;100.00
16834;BME280;8533;48.426;10.868;2022-10-16T02:15:53;96214.88;;;12.50;100.00
16834;BME280;8533;48.426;10.868;2022-10-16T02:18:21;96210.70;;;12.52;100.00
16834;BME280;8533;48.426;10.868;2022-10-16T02:20:55;96211.27;;;12.56;100.00
16834;BME280;8533;48.426;10.868;2022-10-16T02:23:33;96205.22;;;12.58;100.00
16834;BME280;8533;48.426;10.868;2022-10-16T02:25:57;96206.80;;;12.59;100.00
16834;BME280;8533;48.426;10.868;2022-10-16T02:28:45;96207.59;;;12.60;100.00
16834;BME280;8533;48.426;10.868;2022-10-16T02:31:11;96199.73;;;12.63;100.00
16834;BME280;8533;48.426;10.868;2022-10-16T02:33:40;96207.60;;;12.65;100.00
16834;BME280;8533;48.426;10.868;2022-10-16T02:36:10;96203.69;;;12.68;100.00
16834;BME280;8533;48.426;10.868;2022-10-16T02:38:39;96205.02;;;12.70;100.00
16834;BME280;8533;48.426;10.868;2022-10-16T02:41:08;96205.81;;;12.71;100.00
16834;BME280;8533;48.426;10.868;2022-10-16T02:43:35;96208.17;;;12.75;100.00
16834;BME280;8533;48.426;10.868;2022-10-16T02:46:03;96208.17;;;12.75;100.00
16834;BME280;8533;48.426;10.868;2022-10-16T02:48:30;96219.48;;;12.78;100.00
16834;BME280;8533;48.426;10.868;2022-10-16T02:50:58;96218.71;;;12.80;100.00
16834;BME280;8533;48.426;10.868;2022-10-16T02:53:25;96218.98;;;12.81;100.00
16834;BME280;8533;48.426;10.868;2022-10-16T02:55:53;96223.43;;;12.83;100.00
16834;BME280;8533;48.426;10.868;2022-10-16T02:58:20;96215.33;;;12.87;100.00
16834;BME280;8533;48.426;10.868;2022-10-16T03:00:47;96217.19;;;12.94;100.00
16834;BME280;8533;48.426;10.868;2022-10-16T03:03:15;96221.37;;;12.92;100.00
16834;BME280;8533;48.426;10.868;2022-10-16T03:05:43;96224.54;;;12.94;100.00
16834;BME280;8533;48.426;10.868;2022-10-16T03:08:13;96231.13;;;12.97;100.00
16834;BME280;8533;48.426;10.868;2022-10-16T03:10:41;96229.55;;;13.01;100.00
16834;BME280;8533;48.426;10.868;2022-10-16T03:13:09;96231.13;;;13.02;100.00
16834;BME280;8533;48.426;10.868;2022-10-16T03:15:36;96226.14;;;13.06;100.00
16834;BME280;8533;48.426;10.868;2022-10-16T03:18:04;96229.05;;;13.04;100.00
16834;BME280;8533;48.426;10.868;2022-10-16T03:20:31;96226.94;;;13.04;100.00
16834;BME280;8533;48.426;10.868;2022-10-16T03:22:58;96231.38;;;13.06;100.00
16834;BME280;8533;48.426;10.868;2022-10-16T03:25:26;96230.63;;;13.05;100.00
16834;BME280;8533;48.426;10.868;2022-10-16T03:27:53;96227.45;;;13.06;100.00
16834;BME280;8533;48.426;10.868;2022-10-16T03:30:21;96227.73;;;13.09;100.00
16834;BME280;8533;48.426;10.868;2022-10-16T03:32:49;96230.36;;;13.09;100.00
16834;BME280;8533;48.426;10.868;2022-10-16T03:35:18;96233.51;;;13.09;100.00
16834;BME280;8533;48.426;10.868;2022-10-16T03:37:45;96236.13;;;13.09;100.00
16834;BME280;8533;48.426;10.868;2022-10-16T03:40:13;96243.22;;;13.08;100.00
16834;BME280;8533;48.426;10.868;2022-10-16T03:42:43;96240.09;;;13.11;100.00
16834;BME280;8533;48.426;10.868;2022-10-16T03:45:11;96234.30;;;13.09;100.00
16834;BME280;8533;48.426;10.868;2022-10-16T03:47:38;96236.91;;;13.07;100.00
16834;BME280;8533;48.426;10.868;2022-10-16T03:50:06;96223.51;;;13.06;100.00
16834;BME280;8533;48.426;10.868;2022-10-16T03:52:34;96225.38;;;13.05;100.00
16834;BME280;8533;48.426;10.868;2022-10-16T03:55:01;96219.85;;;13.04;100.00
16834;BME280;8533;48.426;10.868;2022-10-16T03:57:29;96221.42;;;13.03;100.00
16834;BME280;8533;48.426;10.868;2022-10-16T03:59:56;96235.34;;;13.03;100.00
16834;BME280;8533;48.426;10.868;2022-10-16T04:02:24;96232.46;;;13.05;100.00
16834;BME280;8533;48.426;10.868;2022-10-16T04:04:51;96229.31;;;13.05;100.00
16834;BME280;8533;48.426;10.868;2022-10-16T04:07:19;96227.47;;;13.08;100.00
16834;BME280;8533;48.426;10.868;2022-10-16T04:09:46;96238.23;;;13.09;100.00
16834;BME280;8533;48.426;10.868;2022-10-16T04:12:14;96235.36;;;13.11;100.00
16834;BME280;8533;48.426;10.868;2022-10-16T04:14:41;96228.00;;;13.10;100.00
16834;BME280;8533;48.426;10.868;2022-10-16T04:17:08;96229.84;;;13.10;100.00
16834;BME280;8533;48.426;10.868;2022-10-16T04:19:36;96234.84;;;13.11;100.00
16834;BME280;8533;48.426;10.868;2022-10-16T04:22:03;96240.36;;;13.12;100.00
16834;BME280;8533;48.426;10.868;2022-10-16T04:24:31;96233.80;;;13.12;100.00
16834;BME280;8533;48.426;10.868;2022-10-16T04:26:58;96231.19;;;13.15;100.00
16834;BME280;8533;48.426;10.868;2022-10-16T04:29:26;96233.02;;;13.14;100.00
16834;BME280;8533;48.426;10.868;2022-10-16T04:31:53;96231.96;;;13.13;100.00
16834;BME280;8533;48.426;10.868;2022-10-16T04:34:20;96230.92;;;13.14;100.00
16834;BME280;8533;48.426;10.868;2022-10-16T04:36:48;96238.03;;;13.13;100.00
16834;BME280;8533;48.426;10.868;2022-10-16T04:39:16;96229.60;;;13.14;100.00
16834;BME280;8533;48.426;10.868;2022-10-16T04:41:43;96225.38;;;13.10;100.00
16834;BME280;8533;48.426;10.868;2022-10-16T04:44:11;96227.53;;;13.13;100.00
16834;BME280;8533;48.426;10.868;2022-10-16T04:46:38;96230.90;;;13.11;100.00
16834;BME280;8533;48.426;10.868;2022-10-16T04:49:06;96230.63;;;13.10;100.00
16834;BME280;8533;48.426;10.868;2022-10-16T04:51:33;96234.82;;;13.09;100.00
16834;BME280;8533;48.426;10.868;2022-10-16T04:54:00;96240.08;;;13.09;100.00
16834;BME280;8533;48.426;10.868;2022-10-16T04:56:28;96241.13;;;13.10;100.00
16834;BME280;8533;48.426;10.868;2022-10-16T04:58:55;96246.38;;;13.08;100.00
16834;BME280;8533;48.426;10.868;2022-10-16T05:01:23;96247.69;;;13.05;100.00
16834;BME280;8533;48.426;10.868;2022-10-16T05:03:50;96250.30;;;13.03;100.00
16834;BME280;8533;48.426;10.868;2022-10-16T05:06:18;96243.71;;;12.95;100.00
16834;BME280;8533;48.426;10.868;2022-10-16T05:08:45;96235.55;;;12.89;100.00
16834;BME280;8533;48.426;10.868;2022-10-16T05:11:12;96237.62;;;12.84;100.00
16834;BME280;8533;48.426;10.868;2022-10-16T05:13:40;96245.23;;;12.81;100.00
16834;BME280;8533;48.426;10.868;2022-10-16T05:16:07;96242.84;;;12.77;100.00
16834;BME280;8533;48.426;10.868;2022-10-16T05:18:35;96242.30;;;12.75;100.00
16834;BME280;8533;48.426;10.868;2022-10-16T05:21:02;96246.77;;;12.72;100.00
16834;BME280;8533;48.426;10.868;2022-10-16T05:23:29;96245.95;;;12.69;100.00
16834;BME280;8533;48.426;10.868;2022-10-16T05:25:58;96250.38;;;12.66;100.00
16834;BME280;8533;48.426;10.868;2022-10-16T05:28:28;96250.91;;;12.63;100.00
16834;BME280;8533;48.426;10.868;2022-10-16T05:30:57;96249.83;;;12.58;100.00
16834;BME280;8533;48.426;10.868;2022-10-16T05:33:26;96251.94;;;12.56;100.00
16834;BME280;8533;48.426;10.868;2022-10-16T05:35:53;96254.27;;;12.53;100.00
16834;BME280;8533;48.426;10.868;2022-10-16T05:38:20;96252.92;;;12.50;100.00
16834;BME280;8533;48.426;10.868;2022-10-16T05:40:51;96248.72;;;12.49;100.00
16834;BME280;8533;48.426;10.868;2022-10-16T05:43:19;96256.33;;;12.46;100.00
16834;BME280;8533;48.426;10.868;2022-10-16T05:46:06;96268.11;;;12.43;100.00
16834;BME280;8533;48.426;10.868;2022-10-16T05:48:33;96278.08;;;12.44;100.00
16834;BME280;8533;48.426;10.868;2022-10-16T05:51:04;96279.64;;;12.42;100.00
16834;BME280;8533;48.426;10.868;2022-10-16T05:53:34;96281.22;;;12.43;100.00
16834;BME280;8533;48.426;10.868;2022-10-16T05:56:03;96283.82;;;12.41;100.00
16834;BME280;8533;48.426;10.868;2022-10-16T05:58:35;96286.44;;;12.41;100.00
16834;BME280;8533;48.426;10.868;2022-10-16T06:01:05;96284.61;;;12.39;100.00
16834;BME280;8533;48.426;10.868;2022-10-16T06:03:33;96290.38;;;12.38;100.00
16834;BME280;8533;48.426;10.868;2022-10-16T06:06:09;96286.45;;;12.38;100.00
16834;BME280;8533;48.426;10.868;2022-10-16T06:08:36;96294.07;;;12.40;100.00
16834;BME280;8533;48.426;10.868;2022-10-16T06:11:09;96292.23;;;12.43;100.00
16834;BME280;8533;48.426;10.868;2022-10-16T06:13:38;96289.12;;;12.46;100.00
16834;BME280;8533;48.426;10.868;2022-10-16T06:16:07;96290.70;;;12.49;100.00
16834;BME280;8533;48.426;10.868;2022-10-16T06:18:34;96293.10;;;12.53;100.00
16834;BME280;8533;48.426;10.868;2022-10-16T06:21:10;96293.66;;;12.60;100.00
16834;BME280;8533;48.426;10.868;2022-10-16T06:23:37;96291.09;;;12.68;100.00
16834;BME280;8533;48.426;10.868;2022-10-16T06:26:06;96302.16;;;12.73;100.00
16834;BME280;8533;48.426;10.868;2022-10-16T06:28:34;96304.80;;;12.78;100.00
16834;BME280;8533;48.426;10.868;2022-10-16T06:31:03;96305.33;;;12.82;100.00
16834;BME280;8533;48.426;10.868;2022-10-16T06:33:31;96307.20;;;12.87;100.00
16834;BME280;8533;48.426;10.868;2022-10-16T06:36:04;96310.39;;;12.94;100.00
16834;BME280;8533;48.426;10.868;2022-10-16T06:38:33;96315.41;;;13.00;100.00
16834;BME280;8533;48.426;10.868;2022-10-16T06:41:01;96317.00;;;13.07;100.00
16834;BME280;8533;48.426;10.868;2022-10-16T06:43:31;96324.13;;;13.11;100.00
16834;BME280;8533;48.426;10.868;2022-10-16T06:46:01;96327.59;;;13.17;100.00
16834;BME280;8533;48.426;10.868;2022-10-16T06:48:30;96324.98;;;13.22;100.00
16834;BME280;8533;48.426;10.868;2022-10-16T06:51:05;96335.27;;;13.28;100.00
16834;BME280;8533;48.426;10.868;2022-10-16T06:53:33;96326.86;;;13.31;100.00
16834;BME280;8533;48.426;10.868;2022-10-16T06:56:08;96329.53;;;13.36;100.00
16834;BME280;8533;48.426;10.868;2022-10-16T06:58:35;96330.03;;;13.38;100.00
16834;BME280;8533;48.426;10.868;2022-10-16T07:01:04;96339.77;;;13.41;100.00
16834;BME280;8533;48.426;10.868;2022-10-16T07:03:31;96345.57;;;13.43;100.00
16834;BME280;8533;48.426;10.868;2022-10-16T07:06:03;96346.36;;;13.43;100.00
16834;BME280;8533;48.426;10.868;2022-10-16T07:08:35;96351.35;;;13.47;100.00
16834;BME280;8533;48.426;10.868;2022-10-16T07:11:06;96347.98;;;13.57;100.00
16834;BME280;8533;48.426;10.868;2022-10-16T07:13:38;96361.97;;;13.70;100.00
16834;BME280;8533;48.426;10.868;2022-10-16T07:16:09;96351.99;;;13.82;100.00
16834;BME280;8533;48.426;10.868;2022-10-16T07:18:37;96358.35;;;14.01;98.07
16834;BME280;8533;48.426;10.868;2022-10-16T07:21:12;96364.94;;;14.22;95.78
16834;BME280;8533;48.426;10.868;2022-10-16T07:23:40;96364.95;;;14.37;94.59
16834;BME280;8533;48.426;10.868;2022-10-16T07:26:08;96364.73;;;14.51;93.29
16834;BME280;8533;48.426;10.868;2022-10-16T07:28:36;96364.70;;;14.61;94.47
16834;BME280;8533;48.426;10.868;2022-10-16T07:31:05;96376.55;;;14.71;94.13
16834;BME280;8533;48.426;10.868;2022-10-16T07:33:35;96376.54;;;14.76;91.80
16834;BME280;8533;48.426;10.868;2022-10-16T07:36:02;96381.30;;;14.82;92.40
16834;BME280;8533;48.426;10.868;2022-10-16T07:38:29;96377.59;;;14.91;91.56
16834;BME280;8533;48.426;10.868;2022-10-16T07:40:58;96381.00;;;14.94;91.47
16834;BME280;8533;48.426;10.868;2022-10-16T07:43:27;96378.11;;;14.95;90.70
16834;BME280;8533;48.426;10.868;2022-10-16T07:45:54;96378.38;;;14.99;90.59
16834;BME280;8533;48.426;10.868;2022-10-16T07:48:23;96386.52;;;15.02;91.18
16834;BME280;8533;48.426;10.868;2022-10-16T07:50:50;96388.11;;;15.06;89.70
16834;BME280;8533;48.426;10.868;2022-10-16T07:53:18;96388.61;;;15.13;89.94
16834;BME280;8533;48.426;10.868;2022-10-16T07:55:45;96397.03;;;15.22;89.37
16834;BME280;8533;48.426;10.868;2022-10-16T07:58:12;96400.70;;;15.29;89.21
16834;BME280;8533;48.426;10.868;2022-10-16T08:00:40;96404.63;;;15.37;88.34
16834;BME280;8533;48.426;10.868;2022-10-16T08:03:08;96401.17;;;15.46;87.48
16834;BME280;8533;48.426;10.868;2022-10-16T08:05:36;96406.69;;;15.57;88.00
16834;BME280;8533;48.426;10.868;2022-10-16T08:08:03;96409.29;;;15.68;87.56
16834;BME280;8533;48.426;10.868;2022-10-16T08:10:31;96409.25;;;15.75;87.55
16834;BME280;8533;48.426;10.868;2022-10-16T08:12:58;96412.91;;;15.82;88.29
16834;BME280;8533;48.426;10.868;2022-10-16T08:15:25;96415.81;;;15.83;87.24
16834;BME280;8533;48.426;10.868;2022-10-16T08:18:00;96411.33;;;15.83;88.69
16834;BME280;8533;48.426;10.868;2022-10-16T08:20:28;96416.04;;;15.91;86.98
16834;BME280;8533;48.426;10.868;2022-10-16T08:22:56;96419.16;;;16.03;86.66
16834;BME280;8533;48.426;10.868;2022-10-16T08:25:24;96410.31;;;16.23;85.53
16834;BME280;8533;48.426;10.868;2022-10-16T08:27:51;96410.20;;;16.41;86.73
16834;BME280;8533;48.426;10.868;2022-10-16T08:30:20;96412.21;;;16.62;87.02
16834;BME280;8533;48.426;10.868;2022-10-16T08:32:48;96405.74;;;16.78;82.85
16834;BME280;8533;48.426;10.868;2022-10-16T08:35:16;96405.55;;;16.98;83.71
16834;BME280;8533;48.426;10.868;2022-10-16T08:37:44;96416.48;;;17.15;83.46
16834;BME280;8533;48.426;10.868;2022-10-16T08:40:29;96419.49;;;17.33;80.79
16834;BME280;8533;48.426;10.868;2022-10-16T08:45:41;96416.00;;;17.85;79.29
16834;BME280;8533;48.426;10.868;2022-10-16T08:48:23;96417.48;;;18.15;77.45
16834;BME280;8533;48.426;10.868;2022-10-16T08:50:53;96420.98;;;18.48;76.51
16834;BME280;8533;48.426;10.868;2022-10-16T08:53:43;96421.86;;;18.78;75.01
16834;BME280;8533;48.426;10.868;2022-10-16T08:55:56;96424.83;;;18.90;73.59
16834;BME280;8533;48.426;10.868;2022-10-16T08:58:29;96431.52;;;19.04;73.08
16834;BME280;8533;48.426;10.868;2022-10-16T09:01:02;96441.92;;;19.14;72.18
16834;BME280;8533;48.426;10.868;2022-10-16T09:06:10;96441.44;;;19.42;71.25
16834;BME280;8533;48.426;10.868;2022-10-16T09:09:12;96443.73;;;19.49;71.24
16834;BME280;8533;48.426;10.868;2022-10-16T09:14:07;96447.88;;;19.68;69.95
16834;BME280;8533;48.426;10.868;2022-10-16T09:16:38;96439.33;;;19.85;69.42
16834;BME280;8533;48.426;10.868;2022-10-16T09:19:20;96440.59;;;20.01;68.97
16834;BME280;8533;48.426;10.868;2022-10-16T09:21:45;96441.59;;;20.16;66.76
16834;BME280;8533;48.426;10.868;2022-10-16T09:24:19;96449.64;;;20.25;67.59
16834;BME280;8533;48.426;10.868;2022-10-16T09:26:47;96442.41;;;20.42;67.99
16834;BME280;8533;48.426;10.868;2022-10-16T09:29:17;96452.37;;;20.47;67.80
16834;BME280;8533;48.426;10.868;2022-10-16T09:31:47;96458.30;;;20.55;65.61
16834;BME280;8533;48.426;10.868;2022-10-16T09:34:32;96456.00;;;20.63;65.41
16834;BME280;8533;48.426;10.868;2022-10-16T09:37:01;96458.38;;;20.64;65.60
16834;BME280;8533;48.426;10.868;2022-10-16T09:39:29;96461.98;;;20.68;64.95
16834;BME280;8533;48.426;10.868;2022-10-16T09:41:57;96457.97;;;20.82;63.75
16834;BME280;8533;48.426;10.868;2022-10-16T09:44:29;96465.16;;;20.81;64.94
16834;BME280;8533;48.426;10.868;2022-10-16T09:47:15;96461.28;;;20.87;63.95
16834;BME280;8533;48.426;10.868;2022-10-16T09:50:01;96465.28;;;20.99;64.79
16834;BME280;8533;48.426;10.868;2022-10-16T09:52:30;96462.13;;;20.97;62.95
16834;BME280;8533;48.426;10.868;2022-10-16T09:55:01;96461.77;;;20.89;62.95
16834;BME280;8533;48.426;10.868;2022-10-16T09:57:28;96466.41;;;20.95;63.52
16834;BME280;8533;48.426;10.868;2022-10-16T09:59:58;96466.17;;;21.05;63.28
16834;BME280;8533;48.426;10.868;2022-10-16T10:02:36;96461.28;;;20.99;63.81
16834;BME280;8533;48.426;10.868;2022-10-16T10:05:18;96469.12;;;20.92;62.46
16834;BME280;8533;48.426;10.868;2022-10-16T10:07:52;96464.59;;;20.93;62.49
16834;BME280;8533;48.426;10.868;2022-10-16T10:10:24;96463.89;;;20.90;63.08
16834;BME280;8533;48.426;10.868;2022-10-16T10:12:51;96469.12;;;20.92;64.14
16834;BME280;8533;48.426;10.868;2022-10-16T10:15:19;96470.65;;;20.96;64.01
16834;BME280;8533;48.426;10.868;2022-10-16T10:17:51;96472.87;;;21.03;64.13
16834;BME280;8533;48.426;10.868;2022-10-16T10:20:30;96473.61;;;21.06;62.89
16834;BME280;8533;48.426;10.868;2022-10-16T10:22:59;96469.14;;;21.15;63.21
16834;BME280;8533;48.426;10.868;2022-10-16T10:25:39;96470.36;;;21.20;63.27
16834;BME280;8533;48.426;10.868;2022-10-16T10:41:49;96490.31;;;21.31;61.93
16834;BME280;8533;48.426;10.868;2022-10-16T10:49:44;96491.21;;;21.38;63.32
16834;BME280;8533;48.426;10.868;2022-10-16T10:52:26;96495.45;;;21.39;64.04
16834;BME280;8533;48.426;10.868;2022-10-16T10:55:08;96486.67;;;21.38;61.38
16834;BME280;8533;48.426;10.868;2022-10-16T10:57:38;96491.41;;;21.61;61.90
16834;BME280;8533;48.426;10.868;2022-10-16T11:00:12;96476.73;;;21.72;59.20
16834;BME280;8533;48.426;10.868;2022-10-16T11:05:27;96475.50;;;21.98;58.34
16834;BME280;8533;48.426;10.868;2022-10-16T11:08:01;96467.53;;;22.06;58.81
16834;BME280;8533;48.426;10.868;2022-10-16T11:10:42;96465.77;;;22.13;57.62
16834;BME280;8533;48.426;10.868;2022-10-16T11:13:36;96469.16;;;22.33;58.14
16834;BME280;8533;48.426;10.868;2022-10-16T11:16:39;96465.47;;;22.32;55.78
16834;BME280;8533;48.426;10.868;2022-10-16T11:18:45;96468.70;;;22.49;56.15
16834;BME280;8533;48.426;10.868;2022-10-16T11:21:13;96465.81;;;22.65;57.00
16834;BME280;8533;48.426;10.868;2022-10-16T11:24:06;96458.01;;;22.77;56.48
16834;BME280;8533;48.426;10.868;2022-10-16T11:26:25;96462.87;;;22.75;54.90
16834;BME280;8533;48.426;10.868;2022-10-16T11:28:47;96467.41;;;22.92;54.20
16834;BME280;8533;48.426;10.868;2022-10-16T11:31:41;96464.13;;;22.86;53.79
16834;BME280;8533;48.426;10.868;2022-10-16T11:39:40;96468.44;;;22.93;55.32
16834;BME280;8533;48.426;10.868;2022-10-16T11:42:27;96463.72;;;22.81;55.66
16834;BME280;8533;48.426;10.868;2022-10-16T11:45:55;96465.67;;;22.70;55.32
16834;BME280;8533;48.426;10.868;2022-10-16T11:47:35;96466.83;;;22.49;55.40
16834;BME280;8533;48.426;10.868;2022-10-16T11:55:37;96457.57;;;22.29;56.90
16834;BME280;8533;48.426;10.868;2022-10-16T12:00:50;96458.48;;;22.25;57.36
16834;BME280;8533;48.426;10.868;2022-10-16T12:03:33;96459.90;;;22.31;57.01
16834;BME280;8533;48.426;10.868;2022-10-16T12:06:06;96457.95;;;22.34;57.00
16834;BME280;8533;48.426;10.868;2022-10-16T12:08:38;96451.75;;;22.27;57.79
16834;BME280;8533;48.426;10.868;2022-10-16T12:11:20;96452.51;;;22.11;57.68
16834;BME280;8533;48.426;10.868;2022-10-16T12:13:38;96451.77;;;21.99;56.90
16834;BME280;8533;48.426;10.868;2022-10-16T12:18:45;96443.91;;;22.39;57.00
16834;BME280;8533;48.426;10.868;2022-10-16T12:21:14;96450.24;;;22.78;56.18
16834;BME280;8533;48.426;10.868;2022-10-16T12:23:56;96447.53;;;22.95;54.88
16834;BME280;8533;48.426;10.868;2022-10-16T12:26:31;96447.52;;;23.04;55.29
16834;BME280;8533;48.426;10.868;2022-10-16T12:29:13;96447.66;;;23.25;52.63
16834;BME280;8533;48.426;10.868;2022-10-16T12:31:46;96447.92;;;23.49;52.57
16834;BME280;8533;48.426;10.868;2022-10-16T12:34:29;96445.70;;;23.74;53.15
16834;BME280;8533;48.426;10.868;2022-10-16T12:37:07;96450.41;;;24.07;53.39
16834;BME280;8533;48.426;10.868;2022-10-16T12:39:28;96463.27;;;24.49;49.97
16834;BME280;8533;48.426;10.868;2022-10-16T12:42:18;96463.67;;;24.59;49.47
16834;BME280;8533;48.426;10.868;2022-10-16T12:44:33;96459.64;;;24.53;49.60
16834;BME280;8533;48.426;10.868;2022-10-16T12:47:01;96463.13;;;24.24;50.28
16834;BME280;8533;48.426;10.868;2022-10-16T12:49:32;96462.75;;;24.05;51.10
16834;BME280;8533;48.426;10.868;2022-10-16T12:51:59;96464.52;;;24.16;50.03
16834;BME280;8533;48.426;10.868;2022-10-16T12:54:37;96461.38;;;23.99;51.13
16834;BME280;8533;48.426;10.868;2022-10-16T12:57:13;96460.62;;;24.05;51.30
16834;BME280;8533;48.426;10.868;2022-10-16T13:00:09;96451.98;;;24.22;50.84
16834;BME280;8533;48.426;10.868;2022-10-16T13:10:35;96467.55;;;23.91;52.52
16834;BME280;8533;48.426;10.868;2022-10-16T13:13:13;96463.58;;;24.12;49.28
16834;BME280;8533;48.426;10.868;2022-10-16T13:18:16;96470.27;;;23.97;52.24
16834;BME280;8533;48.426;10.868;2022-10-16T13:20:55;96464.58;;;24.22;48.14
16834;BME280;8533;48.426;10.868;2022-10-16T13:23:23;96470.19;;;24.29;47.91
16834;BME280;8533;48.426;10.868;2022-10-16T13:28:41;96471.95;;;24.16;48.66
16834;BME280;8533;48.426;10.868;2022-10-16T13:31:20;96466.73;;;23.99;50.89
16834;BME280;8533;48.426;10.868;2022-10-16T13:33:49;96463.54;;;24.06;49.05
16834;BME280;8533;48.426;10.868;2022-10-16T13:36:24;96468.84;;;24.14;49.57
16834;BME280;8533;48.426;10.868;2022-10-16T13:41:41;96467.45;;;23.55;51.80
16834;BME280;8533;48.426;10.868;2022-10-16T13:44:21;96470.05;;;23.58;52.83
16834;BME280;8533;48.426;10.868;2022-10-16T13:46:58;96474.20;;;23.44;52.47
16834;BME280;8533;48.426;10.868;2022-10-16T13:49:17;96468.78;;;23.47;52.98
16834;BME280;8533;48.426;10.868;2022-10-16T13:51:56;96471.09;;;23.42;52.80
16834;BME280;8533;48.426;10.868;2022-10-16T13:54:24;96470.35;;;23.48;53.41
16834;BME280;8533;48.426;10.868;2022-10-16T13:56:53;96474.98;;;23.13;52.65
16834;BME280;8533;48.426;10.868;2022-10-16T13:59:32;96470.61;;;23.08;52.81
16834;BME280;8533;48.426;10.868;2022-10-16T14:01:55;96477.77;;;23.02;54.36
16834;BME280;8533;48.426;10.868;2022-10-16T14:04:27;96479.18;;;22.82;55.01
16834;BME280;8533;48.426;10.868;2022-10-16T14:06:55;96471.72;;;22.81;55.30
16834;BME280;8533;48.426;10.868;2022-10-16T14:09:25;96479.59;;;22.78;56.09
16834;BME280;8533;48.426;10.868;2022-10-16T14:12:08;96480.72;;;22.66;57.14
16834;BME280;8533;48.426;10.868;2022-10-16T14:14:42;96482.66;;;22.54;58.09
16834;BME280;8533;48.426;10.868;2022-10-16T14:17:23;96482.75;;;22.43;57.68
16834;BME280;8533;48.426;10.868;2022-10-16T14:19:49;96484.97;;;22.13;60.15
16834;BME280;8533;48.426;10.868;2022-10-16T14:24:53;96493.55;;;22.01;59.91
16834;BME280;8533;48.426;10.868;2022-10-16T14:27:33;96495.84;;;21.94;61.31